sensor_id;sensor_type;location;lat;lon;timestamp;P1;durP1;ratioP1;P2;durP2;ratioP2
10761;SDS011;5433;50.862;4.320;2022-07-18T00:00:14;3.67;;;2.10;;
10761;SDS011;5433;50.862;4.320;2022-07-18T00:02:40;6.20;;;2.20;;
10761;SDS011;5433;50.862;4.320;2022-07-18T00:05:06;6.40;;;2.40;;
10761;SDS011;5433;50.862;4.320;2022-07-18T00:07:33;3.72;;;2.17;;
10761;SDS011;5433;50.862;4.320;2022-07-18T00:09:59;5.93;;;2.50;;
10761;SDS011;5433;50.862;4.320;2022-07-18T00:12:25;6.18;;;2.30;;
10761;SDS011;5433;50.862;4.320;2022-07-18T00:14:51;6.20;;;2.30;;
10761;SDS011;5433;50.862;4.320;2022-07-18T00:17:17;6.32;;;2.45;;
10761;SDS011;5433;50.862;4.320;2022-07-18T00:19:43;5.15;;;2.50;;
10761;SDS011;5433;50.862;4.320;2022-07-18T00:22:09;4.90;;;2.47;;
10761;SDS011;5433;50.862;4.320;2022-07-18T00:24:35;3.78;;;2.30;;
10761;SDS011;5433;50.862;4.320;2022-07-18T00:27:02;3.78;;;2.17;;
10761;SDS011;5433;50.862;4.320;2022-07-18T00:29:29;2.92;;;2.00;;
10761;SDS011;5433;50.862;4.320;2022-07-18T00:31:56;4.53;;;2.38;;
10761;SDS011;5433;50.862;4.320;2022-07-18T00:34:22;3.78;;;2.40;;
10761;SDS011;5433;50.862;4.320;2022-07-18T00:36:48;3.60;;;2.40;;
10761;SDS011;5433;50.862;4.320;2022-07-18T00:39:14;3.47;;;2.08;;
10761;SDS011;5433;50.862;4.320;2022-07-18T00:41:44;4.72;;;2.50;;
10761;SDS011;5433;50.862;4.320;2022-07-18T00:44:15;5.32;;;2.30;;
10761;SDS011;5433;50.862;4.320;2022-07-18T00:46:41;3.45;;;1.95;;
10761;SDS011;5433;50.862;4.320;2022-07-18T00:49:07;7.32;;;2.60;;
10761;SDS011;5433;50.862;4.320;2022-07-18T00:51:33;4.68;;;2.30;;
10761;SDS011;5433;50.862;4.320;2022-07-18T00:54:01;6.30;;;2.30;;
10761;SDS011;5433;50.862;4.320;2022-07-18T00:56:28;4.63;;;2.20;;
10761;SDS011;5433;50.862;4.320;2022-07-18T00:58:54;3.55;;;2.20;;
10761;SDS011;5433;50.862;4.320;2022-07-18T01:01:20;5.25;;;2.20;;
10761;SDS011;5433;50.862;4.320;2022-07-18T01:04:04;2.67;;;2.08;;
10761;SDS011;5433;50.862;4.320;2022-07-18T01:06:30;2.80;;;2.10;;
10761;SDS011;5433;50.862;4.320;2022-07-18T01:08:57;3.75;;;2.30;;
10761;SDS011;5433;50.862;4.320;2022-07-18T01:11:23;5.05;;;2.20;;
10761;SDS011;5433;50.862;4.320;2022-07-18T01:13:49;5.03;;;2.05;;
10761;SDS011;5433;50.862;4.320;2022-07-18T01:16:16;3.63;;;2.00;;
10761;SDS011;5433;50.862;4.320;2022-07-18T01:18:43;6.38;;;2.40;;
10761;SDS011;5433;50.862;4.320;2022-07-18T01:21:10;5.57;;;2.50;;
10761;SDS011;5433;50.862;4.320;2022-07-18T01:23:36;3.13;;;2.20;;
10761;SDS011;5433;50.862;4.320;2022-07-18T01:26:02;3.00;;;2.38;;
10761;SDS011;5433;50.862;4.320;2022-07-18T01:28:28;4.70;;;2.60;;
10761;SDS011;5433;50.862;4.320;2022-07-18T01:30:54;4.30;;;2.40;;
10761;SDS011;5433;50.862;4.320;2022-07-18T01:33:20;3.25;;;2.50;;
10761;SDS011;5433;50.862;4.320;2022-07-18T01:35:46;3.17;;;2.10;;
10761;SDS011;5433;50.862;4.320;2022-07-18T01:38:12;4.47;;;2.30;;
10761;SDS011;5433;50.862;4.320;2022-07-18T01:40:39;5.35;;;2.55;;
10761;SDS011;5433;50.862;4.320;2022-07-18T01:43:05;4.38;;;2.47;;
10761;SDS011;5433;50.862;4.320;2022-07-18T01:45:31;3.83;;;2.03;;
10761;SDS011;5433;50.862;4.320;2022-07-18T01:47:58;5.20;;;2.50;;
10761;SDS011;5433;50.862;4.320;2022-07-18T01:50:24;3.83;;;2.15;;
10761;SDS011;5433;50.862;4.320;2022-07-18T01:52:50;7.20;;;2.65;;
10761;SDS011;5433;50.862;4.320;2022-07-18T01:55:16;6.75;;;2.20;;
10761;SDS011;5433;50.862;4.320;2022-07-18T01:57:42;5.63;;;2.30;;
10761;SDS011;5433;50.862;4.320;2022-07-18T02:00:08;4.55;;;2.28;;
10761;SDS011;5433;50.862;4.320;2022-07-18T02:02:35;5.72;;;2.33;;
10761;SDS011;5433;50.862;4.320;2022-07-18T02:05:02;5.13;;;2.25;;
10761;SDS011;5433;50.862;4.320;2022-07-18T02:07:29;4.75;;;2.30;;
10761;SDS011;5433;50.862;4.320;2022-07-18T02:09:56;3.47;;;2.30;;
10761;SDS011;5433;50.862;4.320;2022-07-18T02:12:22;3.83;;;2.20;;
10761;SDS011;5433;50.862;4.320;2022-07-18T02:14:49;3.40;;;2.30;;
10761;SDS011;5433;50.862;4.320;2022-07-18T02:17:15;4.68;;;2.33;;
10761;SDS011;5433;50.862;4.320;2022-07-18T02:19:41;4.85;;;2.22;;
10761;SDS011;5433;50.862;4.320;2022-07-18T02:22:07;4.20;;;2.35;;
10761;SDS011;5433;50.862;4.320;2022-07-18T02:24:33;5.43;;;2.60;;
10761;SDS011;5433;50.862;4.320;2022-07-18T02:26:59;2.38;;;1.98;;
10761;SDS011;5433;50.862;4.320;2022-07-18T02:29:25;5.40;;;2.40;;
10761;SDS011;5433;50.862;4.320;2022-07-18T02:31:52;3.55;;;2.20;;
10761;SDS011;5433;50.862;4.320;2022-07-18T02:34:18;5.38;;;2.40;;
10761;SDS011;5433;50.862;4.320;2022-07-18T02:36:44;3.75;;;2.28;;
10761;SDS011;5433;50.862;4.320;2022-07-18T02:39:10;4.95;;;2.25;;
10761;SDS011;5433;50.862;4.320;2022-07-18T02:41:36;3.38;;;2.13;;
10761;SDS011;5433;50.862;4.320;2022-07-18T02:44:03;5.78;;;2.22;;
10761;SDS011;5433;50.862;4.320;2022-07-18T02:46:29;3.03;;;2.03;;
10761;SDS011;5433;50.862;4.320;2022-07-18T02:48:55;4.45;;;2.30;;
10761;SDS011;5433;50.862;4.320;2022-07-18T02:51:21;4.82;;;2.30;;
10761;SDS011;5433;50.862;4.320;2022-07-18T02:53:47;3.13;;;2.10;;
10761;SDS011;5433;50.862;4.320;2022-07-18T02:56:13;7.10;;;2.40;;
10761;SDS011;5433;50.862;4.320;2022-07-18T02:58:39;3.65;;;2.17;;
10761;SDS011;5433;50.862;4.320;2022-07-18T03:01:05;4.15;;;2.40;;
10761;SDS011;5433;50.862;4.320;2022-07-18T03:03:32;4.55;;;2.55;;
10761;SDS011;5433;50.862;4.320;2022-07-18T03:05:58;4.57;;;2.40;;
10761;SDS011;5433;50.862;4.320;2022-07-18T03:08:24;4.32;;;2.50;;
10761;SDS011;5433;50.862;4.320;2022-07-18T03:10:50;3.63;;;2.40;;
10761;SDS011;5433;50.862;4.320;2022-07-18T03:13:16;3.63;;;2.55;;
10761;SDS011;5433;50.862;4.320;2022-07-18T03:15:42;4.78;;;2.50;;
10761;SDS011;5433;50.862;4.320;2022-07-18T03:18:08;4.82;;;2.67;;
10761;SDS011;5433;50.862;4.320;2022-07-18T03:20:34;3.28;;;2.13;;
10761;SDS011;5433;50.862;4.320;2022-07-18T03:23:04;5.00;;;2.58;;
10761;SDS011;5433;50.862;4.320;2022-07-18T03:25:30;3.60;;;2.35;;
10761;SDS011;5433;50.862;4.320;2022-07-18T03:27:57;3.22;;;2.15;;
10761;SDS011;5433;50.862;4.320;2022-07-18T03:30:23;6.90;;;3.20;;
10761;SDS011;5433;50.862;4.320;2022-07-18T03:32:49;5.57;;;2.22;;
10761;SDS011;5433;50.862;4.320;2022-07-18T03:35:15;2.78;;;2.20;;
10761;SDS011;5433;50.862;4.320;2022-07-18T03:37:41;4.18;;;2.30;;
10761;SDS011;5433;50.862;4.320;2022-07-18T03:40:07;5.03;;;2.53;;
10761;SDS011;5433;50.862;4.320;2022-07-18T03:42:36;4.22;;;2.45;;
10761;SDS011;5433;50.862;4.320;2022-07-18T03:45:02;5.35;;;2.35;;
10761;SDS011;5433;50.862;4.320;2022-07-18T03:47:29;4.38;;;2.28;;
10761;SDS011;5433;50.862;4.320;2022-07-18T03:49:55;4.03;;;2.22;;
10761;SDS011;5433;50.862;4.320;2022-07-18T03:52:21;4.53;;;2.60;;
10761;SDS011;5433;50.862;4.320;2022-07-18T03:54:47;6.38;;;2.60;;
10761;SDS011;5433;50.862;4.320;2022-07-18T03:57:13;4.75;;;2.53;;
10761;SDS011;5433;50.862;4.320;2022-07-18T03:59:39;5.03;;;2.50;;
10761;SDS011;5433;50.862;4.320;2022-07-18T04:02:05;6.00;;;2.40;;
10761;SDS011;5433;50.862;4.320;2022-07-18T04:04:31;3.55;;;2.47;;
10761;SDS011;5433;50.862;4.320;2022-07-18T04:06:57;4.13;;;2.30;;
10761;SDS011;5433;50.862;4.320;2022-07-18T04:09:24;2.85;;;2.22;;
10761;SDS011;5433;50.862;4.320;2022-07-18T04:11:50;4.88;;;2.72;;
10761;SDS011;5433;50.862;4.320;2022-07-18T04:14:16;3.95;;;2.60;;
10761;SDS011;5433;50.862;4.320;2022-07-18T04:16:42;6.55;;;2.60;;
10761;SDS011;5433;50.862;4.320;2022-07-18T04:19:08;5.50;;;2.40;;
10761;SDS011;5433;50.862;4.320;2022-07-18T04:21:35;5.70;;;2.60;;
10761;SDS011;5433;50.862;4.320;2022-07-18T04:24:01;3.78;;;2.45;;
10761;SDS011;5433;50.862;4.320;2022-07-18T04:26:27;4.57;;;2.70;;
10761;SDS011;5433;50.862;4.320;2022-07-18T04:28:53;5.32;;;2.58;;
10761;SDS011;5433;50.862;4.320;2022-07-18T04:31:19;5.13;;;2.60;;
10761;SDS011;5433;50.862;4.320;2022-07-18T04:33:45;8.30;;;2.70;;
10761;SDS011;5433;50.862;4.320;2022-07-18T04:36:11;6.57;;;2.92;;
10761;SDS011;5433;50.862;4.320;2022-07-18T04:38:37;4.85;;;3.03;;
10761;SDS011;5433;50.862;4.320;2022-07-18T04:41:06;3.55;;;2.70;;
10761;SDS011;5433;50.862;4.320;2022-07-18T04:43:32;7.28;;;3.00;;
10761;SDS011;5433;50.862;4.320;2022-07-18T04:45:58;6.13;;;2.88;;
10761;SDS011;5433;50.862;4.320;2022-07-18T04:48:24;5.82;;;2.58;;
10761;SDS011;5433;50.862;4.320;2022-07-18T04:50:50;5.10;;;2.65;;
10761;SDS011;5433;50.862;4.320;2022-07-18T04:53:17;7.82;;;2.80;;
10761;SDS011;5433;50.862;4.320;2022-07-18T04:55:43;4.00;;;2.92;;
10761;SDS011;5433;50.862;4.320;2022-07-18T04:58:09;6.05;;;3.22;;
10761;SDS011;5433;50.862;4.320;2022-07-18T05:00:35;5.78;;;3.10;;
10761;SDS011;5433;50.862;4.320;2022-07-18T05:03:01;4.70;;;2.53;;
10761;SDS011;5433;50.862;4.320;2022-07-18T05:05:27;3.47;;;2.38;;
10761;SDS011;5433;50.862;4.320;2022-07-18T05:07:54;3.63;;;2.60;;
10761;SDS011;5433;50.862;4.320;2022-07-18T05:10:21;5.45;;;2.78;;
10761;SDS011;5433;50.862;4.320;2022-07-18T05:12:50;5.18;;;2.58;;
10761;SDS011;5433;50.862;4.320;2022-07-18T05:15:16;6.13;;;2.72;;
10761;SDS011;5433;50.862;4.320;2022-07-18T05:17:43;5.00;;;3.05;;
10761;SDS011;5433;50.862;4.320;2022-07-18T05:20:10;7.38;;;2.70;;
10761;SDS011;5433;50.862;4.320;2022-07-18T05:22:37;4.40;;;3.08;;
10761;SDS011;5433;50.862;4.320;2022-07-18T05:25:03;5.85;;;2.72;;
10761;SDS011;5433;50.862;4.320;2022-07-18T05:27:30;5.75;;;2.83;;
10761;SDS011;5433;50.862;4.320;2022-07-18T05:29:56;5.43;;;2.90;;
10761;SDS011;5433;50.862;4.320;2022-07-18T05:32:24;4.40;;;2.78;;
10761;SDS011;5433;50.862;4.320;2022-07-18T05:34:50;5.32;;;2.90;;
10761;SDS011;5433;50.862;4.320;2022-07-18T05:37:16;4.75;;;2.90;;
10761;SDS011;5433;50.862;4.320;2022-07-18T05:39:42;4.32;;;2.60;;
10761;SDS011;5433;50.862;4.320;2022-07-18T05:42:08;5.50;;;2.70;;
10761;SDS011;5433;50.862;4.320;2022-07-18T05:44:34;5.22;;;3.15;;
10761;SDS011;5433;50.862;4.320;2022-07-18T05:47:00;5.47;;;2.80;;
10761;SDS011;5433;50.862;4.320;2022-07-18T05:49:26;5.88;;;3.00;;
10761;SDS011;5433;50.862;4.320;2022-07-18T05:51:52;4.47;;;2.60;;
10761;SDS011;5433;50.862;4.320;2022-07-18T05:54:18;4.40;;;2.60;;
10761;SDS011;5433;50.862;4.320;2022-07-18T05:56:48;5.05;;;2.83;;
10761;SDS011;5433;50.862;4.320;2022-07-18T05:59:15;5.18;;;2.47;;
10761;SDS011;5433;50.862;4.320;2022-07-18T06:01:41;3.80;;;2.60;;
10761;SDS011;5433;50.862;4.320;2022-07-18T06:04:07;6.82;;;2.55;;
10761;SDS011;5433;50.862;4.320;2022-07-18T06:06:33;5.15;;;2.53;;
10761;SDS011;5433;50.862;4.320;2022-07-18T06:09:00;6.18;;;2.78;;
10761;SDS011;5433;50.862;4.320;2022-07-18T06:11:26;4.53;;;2.53;;
10761;SDS011;5433;50.862;4.320;2022-07-18T06:13:52;5.28;;;2.80;;
10761;SDS011;5433;50.862;4.320;2022-07-18T06:16:18;6.78;;;2.72;;
10761;SDS011;5433;50.862;4.320;2022-07-18T06:18:44;4.43;;;2.60;;
10761;SDS011;5433;50.862;4.320;2022-07-18T06:21:10;6.90;;;2.70;;
10761;SDS011;5433;50.862;4.320;2022-07-18T06:23:36;7.57;;;3.58;;
10761;SDS011;5433;50.862;4.320;2022-07-18T06:26:03;5.97;;;2.85;;
10761;SDS011;5433;50.862;4.320;2022-07-18T06:28:29;4.53;;;2.55;;
10761;SDS011;5433;50.862;4.320;2022-07-18T06:30:57;5.75;;;2.70;;
10761;SDS011;5433;50.862;4.320;2022-07-18T06:33:23;3.53;;;2.33;;
10761;SDS011;5433;50.862;4.320;2022-07-18T06:35:49;5.28;;;2.53;;
10761;SDS011;5433;50.862;4.320;2022-07-18T06:38:15;6.78;;;2.70;;
10761;SDS011;5433;50.862;4.320;2022-07-18T06:40:42;5.30;;;2.33;;
10761;SDS011;5433;50.862;4.320;2022-07-18T06:43:08;5.53;;;2.72;;
10761;SDS011;5433;50.862;4.320;2022-07-18T06:45:35;5.80;;;2.53;;
10761;SDS011;5433;50.862;4.320;2022-07-18T06:48:01;6.00;;;2.45;;
10761;SDS011;5433;50.862;4.320;2022-07-18T06:50:27;5.78;;;2.35;;
10761;SDS011;5433;50.862;4.320;2022-07-18T06:52:53;3.95;;;2.58;;
10761;SDS011;5433;50.862;4.320;2022-07-18T06:55:19;4.43;;;2.40;;
10761;SDS011;5433;50.862;4.320;2022-07-18T06:57:45;5.00;;;2.83;;
10761;SDS011;5433;50.862;4.320;2022-07-18T07:00:13;6.35;;;2.60;;
10761;SDS011;5433;50.862;4.320;2022-07-18T07:02:40;3.65;;;2.30;;
10761;SDS011;5433;50.862;4.320;2022-07-18T07:05:07;6.05;;;2.70;;
10761;SDS011;5433;50.862;4.320;2022-07-18T07:07:33;7.57;;;2.42;;
10761;SDS011;5433;50.862;4.320;2022-07-18T07:09:59;6.15;;;2.65;;
10761;SDS011;5433;50.862;4.320;2022-07-18T07:12:25;8.20;;;2.58;;
10761;SDS011;5433;50.862;4.320;2022-07-18T07:14:51;3.80;;;2.40;;
10761;SDS011;5433;50.862;4.320;2022-07-18T07:17:17;4.35;;;2.63;;
10761;SDS011;5433;50.862;4.320;2022-07-18T07:19:43;5.45;;;2.58;;
10761;SDS011;5433;50.862;4.320;2022-07-18T07:22:09;7.10;;;2.72;;
10761;SDS011;5433;50.862;4.320;2022-07-18T07:24:37;4.70;;;2.45;;
10761;SDS011;5433;50.862;4.320;2022-07-18T07:27:05;7.30;;;2.50;;
10761;SDS011;5433;50.862;4.320;2022-07-18T07:29:31;5.18;;;2.50;;
10761;SDS011;5433;50.862;4.320;2022-07-18T07:31:57;5.82;;;2.58;;
10761;SDS011;5433;50.862;4.320;2022-07-18T07:34:24;4.60;;;2.30;;
10761;SDS011;5433;50.862;4.320;2022-07-18T07:36:50;5.68;;;2.53;;
10761;SDS011;5433;50.862;4.320;2022-07-18T07:39:16;4.45;;;2.00;;
10761;SDS011;5433;50.862;4.320;2022-07-18T07:41:42;5.97;;;2.42;;
10761;SDS011;5433;50.862;4.320;2022-07-18T07:44:08;4.55;;;2.50;;
10761;SDS011;5433;50.862;4.320;2022-07-18T07:46:34;5.43;;;2.30;;
10761;SDS011;5433;50.862;4.320;2022-07-18T07:49:00;8.80;;;2.97;;
10761;SDS011;5433;50.862;4.320;2022-07-18T07:51:26;5.85;;;2.45;;
10761;SDS011;5433;50.862;4.320;2022-07-18T07:53:52;5.68;;;2.38;;
10761;SDS011;5433;50.862;4.320;2022-07-18T07:56:18;5.10;;;2.63;;
10761;SDS011;5433;50.862;4.320;2022-07-18T07:58:44;7.95;;;2.50;;
10761;SDS011;5433;50.862;4.320;2022-07-18T08:01:11;7.75;;;2.58;;
10761;SDS011;5433;50.862;4.320;2022-07-18T08:03:37;6.10;;;2.47;;
10761;SDS011;5433;50.862;4.320;2022-07-18T08:06:03;6.63;;;2.40;;
10761;SDS011;5433;50.862;4.320;2022-07-18T08:08:30;7.20;;;2.55;;
10761;SDS011;5433;50.862;4.320;2022-07-18T08:10:56;6.63;;;2.45;;
10761;SDS011;5433;50.862;4.320;2022-07-18T08:13:22;9.00;;;2.80;;
10761;SDS011;5433;50.862;4.320;2022-07-18T08:15:48;6.75;;;2.13;;
10761;SDS011;5433;50.862;4.320;2022-07-18T08:18:14;6.05;;;2.33;;
10761;SDS011;5433;50.862;4.320;2022-07-18T08:20:40;5.95;;;2.47;;
10761;SDS011;5433;50.862;4.320;2022-07-18T08:23:07;6.05;;;2.63;;
10761;SDS011;5433;50.862;4.320;2022-07-18T08:25:35;8.02;;;2.58;;
10761;SDS011;5433;50.862;4.320;2022-07-18T08:28:01;3.58;;;2.30;;
10761;SDS011;5433;50.862;4.320;2022-07-18T08:30:28;5.13;;;2.10;;
10761;SDS011;5433;50.862;4.320;2022-07-18T08:32:54;3.40;;;2.30;;
10761;SDS011;5433;50.862;4.320;2022-07-18T08:35:20;4.55;;;2.30;;
10761;SDS011;5433;50.862;4.320;2022-07-18T08:37:46;4.00;;;2.00;;
10761;SDS011;5433;50.862;4.320;2022-07-18T08:40:12;4.60;;;2.40;;
10761;SDS011;5433;50.862;4.320;2022-07-18T08:42:39;4.10;;;2.10;;
10761;SDS011;5433;50.862;4.320;2022-07-18T08:45:06;4.07;;;1.92;;
10761;SDS011;5433;50.862;4.320;2022-07-18T08:47:32;5.65;;;2.20;;
10761;SDS011;5433;50.862;4.320;2022-07-18T08:49:58;3.28;;;1.95;;
10761;SDS011;5433;50.862;4.320;2022-07-18T08:52:26;4.18;;;2.05;;
10761;SDS011;5433;50.862;4.320;2022-07-18T08:54:53;4.47;;;2.30;;
10761;SDS011;5433;50.862;4.320;2022-07-18T08:57:19;4.85;;;2.05;;
10761;SDS011;5433;50.862;4.320;2022-07-18T08:59:45;4.30;;;1.77;;
10761;SDS011;5433;50.862;4.320;2022-07-18T09:02:11;2.97;;;1.83;;
10761;SDS011;5433;50.862;4.320;2022-07-18T09:04:38;4.85;;;1.88;;
10761;SDS011;5433;50.862;4.320;2022-07-18T09:07:05;3.30;;;1.70;;
10761;SDS011;5433;50.862;4.320;2022-07-18T09:09:33;3.85;;;1.80;;
10761;SDS011;5433;50.862;4.320;2022-07-18T09:12:02;3.80;;;1.98;;
10761;SDS011;5433;50.862;4.320;2022-07-18T09:22:30;3.88;;;2.28;;
10761;SDS011;5433;50.862;4.320;2022-07-18T09:25:03;2.78;;;2.22;;
10761;SDS011;5433;50.862;4.320;2022-07-18T09:32:34;2.20;;;1.60;;
10761;SDS011;5433;50.862;4.320;2022-07-18T09:35:07;2.63;;;1.90;;
10761;SDS011;5433;50.862;4.320;2022-07-18T09:37:34;4.10;;;1.95;;
10761;SDS011;5433;50.862;4.320;2022-07-18T09:40:21;2.92;;;1.90;;
10761;SDS011;5433;50.862;4.320;2022-07-18T09:42:53;5.28;;;1.90;;
10761;SDS011;5433;50.862;4.320;2022-07-18T09:45:23;2.47;;;1.75;;
10761;SDS011;5433;50.862;4.320;2022-07-18T09:47:50;2.60;;;1.55;;
10761;SDS011;5433;50.862;4.320;2022-07-18T09:50:21;1.88;;;1.60;;
10761;SDS011;5433;50.862;4.320;2022-07-18T09:53:04;3.70;;;2.00;;
10761;SDS011;5433;50.862;4.320;2022-07-18T09:55:30;4.45;;;1.60;;
10761;SDS011;5433;50.862;4.320;2022-07-18T09:58:16;1.88;;;1.67;;
10761;SDS011;5433;50.862;4.320;2022-07-18T10:00:42;2.20;;;1.60;;
10761;SDS011;5433;50.862;4.320;2022-07-18T10:03:08;5.13;;;1.40;;
10761;SDS011;5433;50.862;4.320;2022-07-18T10:05:35;2.28;;;1.50;;
10761;SDS011;5433;50.862;4.320;2022-07-18T10:08:03;3.67;;;1.60;;
10761;SDS011;5433;50.862;4.320;2022-07-18T10:10:30;2.88;;;1.50;;
10761;SDS011;5433;50.862;4.320;2022-07-18T10:12:58;10.18;;;1.70;;
10761;SDS011;5433;50.862;4.320;2022-07-18T10:15:33;2.08;;;1.58;;
10761;SDS011;5433;50.862;4.320;2022-07-18T10:18:03;2.47;;;1.40;;
10761;SDS011;5433;50.862;4.320;2022-07-18T10:23:01;2.17;;;1.40;;
10761;SDS011;5433;50.862;4.320;2022-07-18T10:25:28;2.10;;;1.70;;
10761;SDS011;5433;50.862;4.320;2022-07-18T10:30:34;2.40;;;1.40;;
10761;SDS011;5433;50.862;4.320;2022-07-18T10:33:04;1.52;;;1.42;;
10761;SDS011;5433;50.862;4.320;2022-07-18T10:38:21;1.73;;;1.50;;
10761;SDS011;5433;50.862;4.320;2022-07-18T10:41:01;1.50;;;1.40;;
10761;SDS011;5433;50.862;4.320;2022-07-18T10:45:56;1.20;;;1.05;;
10761;SDS011;5433;50.862;4.320;2022-07-18T10:51:17;2.08;;;1.40;;
10761;SDS011;5433;50.862;4.320;2022-07-18T10:53:56;2.22;;;1.42;;
10761;SDS011;5433;50.862;4.320;2022-07-18T10:57:09;1.73;;;1.58;;
10761;SDS011;5433;50.862;4.320;2022-07-18T10:59:16;3.72;;;1.50;;
10761;SDS011;5433;50.862;4.320;2022-07-18T11:01:52;3.08;;;1.33;;
10761;SDS011;5433;50.862;4.320;2022-07-18T11:06:52;3.53;;;1.25;;
10761;SDS011;5433;50.862;4.320;2022-07-18T11:09:31;2.55;;;1.70;;
10761;SDS011;5433;50.862;4.320;2022-07-18T11:22:50;1.77;;;1.48;;
10761;SDS011;5433;50.862;4.320;2022-07-18T11:25:16;3.03;;;1.52;;
10761;SDS011;5433;50.862;4.320;2022-07-18T11:27:43;2.35;;;1.33;;
10761;SDS011;5433;50.862;4.320;2022-07-18T11:30:09;2.75;;;1.55;;
10761;SDS011;5433;50.862;4.320;2022-07-18T11:32:35;3.40;;;1.60;;
10761;SDS011;5433;50.862;4.320;2022-07-18T11:35:02;4.18;;;1.60;;
10761;SDS011;5433;50.862;4.320;2022-07-18T11:37:31;3.10;;;1.73;;
10761;SDS011;5433;50.862;4.320;2022-07-18T11:40:18;2.50;;;1.58;;
10761;SDS011;5433;50.862;4.320;2022-07-18T11:42:43;2.17;;;1.42;;
10761;SDS011;5433;50.862;4.320;2022-07-18T11:45:11;3.33;;;2.15;;
10761;SDS011;5433;50.862;4.320;2022-07-18T11:47:48;2.17;;;1.45;;
10761;SDS011;5433;50.862;4.320;2022-07-18T11:50:15;2.95;;;1.50;;
10761;SDS011;5433;50.862;4.320;2022-07-18T11:52:42;2.70;;;1.65;;
10761;SDS011;5433;50.862;4.320;2022-07-18T11:55:13;2.42;;;1.50;;
10761;SDS011;5433;50.862;4.320;2022-07-18T11:57:39;2.15;;;1.70;;
10761;SDS011;5433;50.862;4.320;2022-07-18T12:00:18;3.22;;;1.60;;
10761;SDS011;5433;50.862;4.320;2022-07-18T12:05:53;2.58;;;1.65;;
10761;SDS011;5433;50.862;4.320;2022-07-18T12:08:26;3.38;;;1.50;;
10761;SDS011;5433;50.862;4.320;2022-07-18T12:13:59;3.67;;;1.65;;
10761;SDS011;5433;50.862;4.320;2022-07-18T12:16:32;5.32;;;1.50;;
10761;SDS011;5433;50.862;4.320;2022-07-18T12:19:00;1.50;;;1.25;;
10761;SDS011;5433;50.862;4.320;2022-07-18T12:24:19;3.25;;;1.55;;
10761;SDS011;5433;50.862;4.320;2022-07-18T12:26:45;2.83;;;1.55;;
10761;SDS011;5433;50.862;4.320;2022-07-18T12:29:11;4.32;;;1.58;;
10761;SDS011;5433;50.862;4.320;2022-07-18T12:31:38;2.65;;;1.40;;
10761;SDS011;5433;50.862;4.320;2022-07-18T12:34:15;2.38;;;1.50;;
10761;SDS011;5433;50.862;4.320;2022-07-18T12:36:56;1.60;;;1.50;;
10761;SDS011;5433;50.862;4.320;2022-07-18T12:42:26;2.78;;;1.80;;
10761;SDS011;5433;50.862;4.320;2022-07-18T12:44:52;3.05;;;1.58;;
10761;SDS011;5433;50.862;4.320;2022-07-18T12:47:18;3.50;;;1.50;;
10761;SDS011;5433;50.862;4.320;2022-07-18T12:49:44;2.00;;;1.67;;
10761;SDS011;5433;50.862;4.320;2022-07-18T12:52:10;2.00;;;1.40;;
10761;SDS011;5433;50.862;4.320;2022-07-18T12:54:36;4.10;;;1.55;;
10761;SDS011;5433;50.862;4.320;2022-07-18T12:57:02;3.45;;;1.80;;
10761;SDS011;5433;50.862;4.320;2022-07-18T12:59:28;2.95;;;1.60;;
10761;SDS011;5433;50.862;4.320;2022-07-18T13:01:55;5.68;;;1.60;;
10761;SDS011;5433;50.862;4.320;2022-07-18T13:04:21;1.92;;;1.50;;
10761;SDS011;5433;50.862;4.320;2022-07-18T13:06:47;1.60;;;1.50;;
10761;SDS011;5433;50.862;4.320;2022-07-18T13:09:13;1.95;;;1.50;;
10761;SDS011;5433;50.862;4.320;2022-07-18T13:11:39;2.30;;;1.50;;
10761;SDS011;5433;50.862;4.320;2022-07-18T13:14:05;4.03;;;1.50;;
10761;SDS011;5433;50.862;4.320;2022-07-18T13:16:31;1.80;;;1.60;;
10761;SDS011;5433;50.862;4.320;2022-07-18T13:18:57;2.78;;;1.58;;
10761;SDS011;5433;50.862;4.320;2022-07-18T13:21:24;3.53;;;1.42;;
10761;SDS011;5433;50.862;4.320;2022-07-18T13:23:50;3.25;;;1.75;;
10761;SDS011;5433;50.862;4.320;2022-07-18T13:26:16;2.15;;;1.60;;
10761;SDS011;5433;50.862;4.320;2022-07-18T13:28:42;1.77;;;1.50;;
10761;SDS011;5433;50.862;4.320;2022-07-18T13:31:08;2.30;;;1.60;;
10761;SDS011;5433;50.862;4.320;2022-07-18T13:33:35;2.33;;;1.60;;
10761;SDS011;5433;50.862;4.320;2022-07-18T13:36:01;3.85;;;1.60;;
10761;SDS011;5433;50.862;4.320;2022-07-18T13:38:30;1.95;;;1.60;;
10761;SDS011;5433;50.862;4.320;2022-07-18T13:40:56;2.20;;;1.60;;
10761;SDS011;5433;50.862;4.320;2022-07-18T13:43:23;6.07;;;1.73;;
10761;SDS011;5433;50.862;4.320;2022-07-18T13:45:49;2.22;;;1.40;;
10761;SDS011;5433;50.862;4.320;2022-07-18T13:48:15;2.78;;;1.67;;
10761;SDS011;5433;50.862;4.320;2022-07-18T13:50:42;2.17;;;1.60;;
10761;SDS011;5433;50.862;4.320;2022-07-18T13:53:08;2.38;;;1.55;;
10761;SDS011;5433;50.862;4.320;2022-07-18T13:55:34;4.00;;;1.52;;
10761;SDS011;5433;50.862;4.320;2022-07-18T13:58:00;1.55;;;1.35;;
10761;SDS011;5433;50.862;4.320;2022-07-18T14:00:26;1.90;;;1.40;;
10761;SDS011;5433;50.862;4.320;2022-07-18T14:02:52;2.42;;;1.60;;
10761;SDS011;5433;50.862;4.320;2022-07-18T14:05:19;1.65;;;1.52;;
10761;SDS011;5433;50.862;4.320;2022-07-18T14:07:45;1.80;;;1.40;;
10761;SDS011;5433;50.862;4.320;2022-07-18T14:10:13;2.10;;;1.40;;
10761;SDS011;5433;50.862;4.320;2022-07-18T14:12:39;1.73;;;1.55;;
10761;SDS011;5433;50.862;4.320;2022-07-18T14:15:05;2.92;;;1.70;;
10761;SDS011;5433;50.862;4.320;2022-07-18T14:17:32;3.55;;;1.52;;
10761;SDS011;5433;50.862;4.320;2022-07-18T14:19:58;2.03;;;1.60;;
10761;SDS011;5433;50.862;4.320;2022-07-18T14:22:25;2.55;;;1.70;;
10761;SDS011;5433;50.862;4.320;2022-07-18T14:24:51;3.65;;;1.45;;
10761;SDS011;5433;50.862;4.320;2022-07-18T14:27:17;2.13;;;1.40;;
10761;SDS011;5433;50.862;4.320;2022-07-18T14:29:43;1.98;;;1.40;;
10761;SDS011;5433;50.862;4.320;2022-07-18T14:32:09;2.25;;;1.35;;
10761;SDS011;5433;50.862;4.320;2022-07-18T14:34:35;1.95;;;1.60;;
10761;SDS011;5433;50.862;4.320;2022-07-18T14:37:02;3.75;;;1.73;;
10761;SDS011;5433;50.862;4.320;2022-07-18T14:39:28;2.17;;;1.40;;
10761;SDS011;5433;50.862;4.320;2022-07-18T14:41:55;2.08;;;1.50;;
10761;SDS011;5433;50.862;4.320;2022-07-18T14:44:22;1.63;;;1.40;;
10761;SDS011;5433;50.862;4.320;2022-07-18T14:46:49;2.88;;;1.50;;
10761;SDS011;5433;50.862;4.320;2022-07-18T14:49:15;1.50;;;1.40;;
10761;SDS011;5433;50.862;4.320;2022-07-18T14:51:41;2.03;;;1.40;;
10761;SDS011;5433;50.862;4.320;2022-07-18T14:54:07;2.65;;;1.30;;
10761;SDS011;5433;50.862;4.320;2022-07-18T14:56:35;2.00;;;1.50;;
10761;SDS011;5433;50.862;4.320;2022-07-18T14:59:01;2.33;;;1.50;;
10761;SDS011;5433;50.862;4.320;2022-07-18T15:01:27;1.90;;;1.50;;
10761;SDS011;5433;50.862;4.320;2022-07-18T15:03:53;1.65;;;1.50;;
10761;SDS011;5433;50.862;4.320;2022-07-18T15:06:20;4.25;;;1.60;;
10761;SDS011;5433;50.862;4.320;2022-07-18T15:08:46;1.55;;;1.45;;
10761;SDS011;5433;50.862;4.320;2022-07-18T15:11:12;1.60;;;1.50;;
10761;SDS011;5433;50.862;4.320;2022-07-18T15:13:38;2.17;;;1.70;;
10761;SDS011;5433;50.862;4.320;2022-07-18T15:16:04;2.80;;;1.70;;
10761;SDS011;5433;50.862;4.320;2022-07-18T15:18:30;4.43;;;1.70;;
10761;SDS011;5433;50.862;4.320;2022-07-18T15:20:56;2.10;;;1.30;;
10761;SDS011;5433;50.862;4.320;2022-07-18T15:23:23;3.75;;;1.80;;
10761;SDS011;5433;50.862;4.320;2022-07-18T15:25:49;2.28;;;1.55;;
10761;SDS011;5433;50.862;4.320;2022-07-18T15:28:16;2.40;;;1.67;;
10761;SDS011;5433;50.862;4.320;2022-07-18T15:30:42;2.42;;;1.60;;
10761;SDS011;5433;50.862;4.320;2022-07-18T15:33:08;3.65;;;1.60;;
10761;SDS011;5433;50.862;4.320;2022-07-18T15:35:34;1.60;;;1.50;;
10761;SDS011;5433;50.862;4.320;2022-07-18T15:38:00;3.28;;;1.73;;
10761;SDS011;5433;50.862;4.320;2022-07-18T15:40:26;2.28;;;1.70;;
10761;SDS011;5433;50.862;4.320;2022-07-18T15:42:52;3.90;;;1.95;;
10761;SDS011;5433;50.862;4.320;2022-07-18T15:45:18;2.22;;;1.58;;
10761;SDS011;5433;50.862;4.320;2022-07-18T15:47:44;2.55;;;1.70;;
10761;SDS011;5433;50.862;4.320;2022-07-18T15:50:10;2.83;;;1.52;;